Time;durP1;ratioP1;P1;durP2;ratioP2;P2;SDS_P1;SDS_P2;PMS_P1;PMS_P2;Temp;Humidity;BMP_temperature;BMP_pressure;BME280_temperature;BME280_humidity;BME280_pressure;Samples;Min_cycle;Max_cycle;Signal;HPM_P1;HPM_P2
2023/07/01 00:01:24;;;;;;;14.52;3.30;;;;;;;17.83;60.85;100632.22;5018646;28;20033;-64
2023/07/01 00:03:49;;;;;;;14.10;3.25;;;;;;;17.88;61.14;100634.75;5018354;28;20018;-64
2023/07/01 00:06:15;;;;;;;14.05;3.53;;;;;;;17.88;61.25;100630.31;5015019;28;20152;-64
2023/07/01 00:08:41;;;;;;;14.43;3.38;;;;;;;17.85;61.88;100627.69;5015755;28;20030;-63
2023/07/01 00:11:07;;;;;;;14.00;3.50;;;;;;;17.84;62.01;100617.03;5015490;28;20217;-62
2023/07/01 00:13:33;;;;;;;13.40;3.60;;;;;;;17.83;62.46;100616.19;5015732;28;20057;-60
2023/07/01 00:15:59;;;;;;;11.38;3.25;;;;;;;17.83;62.84;100615.31;5015384;28;20112;-60
2023/07/01 00:18:25;;;;;;;13.60;3.45;;;;;;;17.79;63.27;100609.16;5015410;28;20161;-61
2023/07/01 00:20:51;;;;;;;12.07;3.28;;;;;;;17.77;63.91;100603.00;5015384;28;20052;-64
2023/07/01 00:23:16;;;;;;;12.20;3.38;;;;;;;17.76;64.33;100603.91;5015514;28;20030;-61
2023/07/01 00:25:42;;;;;;;12.25;3.60;;;;;;;17.77;63.97;100601.19;5015500;28;20034;-64
2023/07/01 00:28:07;;;;;;;14.68;3.58;;;;;;;17.76;64.93;100596.75;5015143;28;20033;-61
2023/07/01 00:30:32;;;;;;;12.02;3.53;;;;;;;17.75;64.49;100605.72;5015122;28;20034;-61
2023/07/01 00:32:59;;;;;;;13.40;3.40;;;;;;;17.71;65.89;100588.03;5015419;28;20022;-61
2023/07/01 00:35:25;;;;;;;13.63;3.30;;;;;;;17.71;65.75;100592.50;5015312;28;20108;-61
2023/07/01 00:37:50;;;;;;;14.65;3.47;;;;;;;17.69;66.25;100576.50;5015341;28;20180;-62
2023/07/01 00:40:16;;;;;;;13.48;3.38;;;;;;;17.71;66.29;100573.78;5015215;28;20117;-60
2023/07/01 00:42:42;;;;;;;13.85;3.40;;;;;;;17.73;66.20;100580.81;5015016;28;20030;-61
2023/07/01 00:45:08;;;;;;;13.05;3.40;;;;;;;17.66;67.09;100576.56;5014953;28;20065;-60
2023/07/01 00:47:33;;;;;;;15.35;3.67;;;;;;;17.67;67.88;100573.00;5015113;28;20111;-64
2023/07/01 00:49:59;;;;;;;14.75;3.70;;;;;;;17.65;67.83;100568.59;5014729;28;20403;-65
2023/07/01 00:52:24;;;;;;;10.75;3.45;;;;;;;17.64;68.51;100570.41;5014852;28;20458;-60
2023/07/01 00:54:50;;;;;;;15.98;3.60;;;;;;;17.63;69.53;100562.44;5014909;28;20037;-67
2023/07/01 00:57:15;;;;;;;14.35;3.45;;;;;;;17.53;70.29;100568.06;5014726;28;20116;-61
2023/07/01 00:59:40;;;;;;;15.82;3.90;;;;;;;17.46;71.32;100562.91;5014608;28;20085;-60
2023/07/01 01:02:33;;;;;;;14.77;3.75;;;;;;;17.46;73.37;100557.56;5014744;28;20385;-67
2023/07/01 01:05:10;;;;;;;;;;;;;;;17.45;73.00;100554.03;5006358;28;20104;-66
2023/07/01 01:08:02;;;;;;;14.77;3.75;;;;;;;17.36;74.88;100555.19;5014974;28;19924;-61
2023/07/01 01:10:30;;;;;;;;;;;;;;;17.46;73.57;100549.56;5012220;28;20125;-64
2023/07/01 01:12:57;;;;;;;13.65;3.40;;;;;;;17.41;77.53;100537.19;5014454;28;19914;-63
2023/07/01 01:15:25;;;;;;;15.45;3.70;;;;;;;17.42;78.76;100548.78;5014371;28;20034;-64
2023/07/01 01:17:55;;;;;;;15.52;3.50;;;;;;;17.40;78.93;100540.81;5014770;28;20024;-63
2023/07/01 01:20:22;;;;;;;15.80;3.80;;;;;;;17.42;78.85;100538.97;5010350;28;20076;-66
2023/07/01 01:22:57;;;;;;;15.68;3.65;;;;;;;17.41;78.91;100531.00;5014198;28;20032;-65
2023/07/01 01:25:45;;;;;;;13.18;3.50;;;;;;;17.47;78.79;100524.59;5010752;28;20101;-66
2023/07/01 01:28:11;;;;;;;15.48;3.90;;;;;;;17.42;79.57;100535.44;5013108;28;20018;-62
2023/07/01 01:30:37;;;;;;;13.00;3.50;;;;;;;17.43;80.88;100534.50;5014474;28;20034;-66
2023/07/01 01:33:03;;;;;;;13.57;3.50;;;;;;;17.43;81.55;100524.69;5014125;28;20397;-67
2023/07/01 01:35:29;;;;;;;14.10;3.35;;;;;;;17.45;83.25;100526.44;5014019;28;20053;-67
2023/07/01 01:37:58;;;;;;;14.15;3.50;;;;;;;17.42;87.16;100525.59;5014152;28;20025;-67
2023/07/01 01:40:40;;;;;;;14.40;3.70;;;;;;;17.36;90.30;100523.13;5014138;28;20065;-65
2023/07/01 01:43:20;;;;;;;12.43;3.53;;;;;;;17.28;95.04;100517.09;5013936;28;20034;-66
2023/07/01 01:45:47;;;;;;;16.67;3.75;;;;;;;17.15;98.92;100511.22;5014037;28;20026;-60
2023/07/01 01:48:13;;;;;;;15.05;3.95;;;;;;;17.15;100.00;100513.03;5013930;28;20110;-63
2023/07/01 01:50:39;;;;;;;15.35;3.75;;;;;;;17.18;100.00;100507.59;5013633;28;20116;-64
2023/07/01 01:53:05;;;;;;;14.18;3.60;;;;;;;17.19;100.00;100498.69;5013713;28;20446;-61
2023/07/01 01:55:31;;;;;;;15.93;3.90;;;;;;;17.13;100.00;100501.53;5013890;28;20102;-61
2023/07/01 01:57:59;;;;;;;17.48;4.05;;;;;;;17.15;100.00;100507.69;5013593;28;20054;-64
2023/07/01 02:00:24;;;;;;;17.08;3.90;;;;;;;17.08;100.00;100502.53;5013553;28;20149;-63
2023/07/01 02:02:50;;;;;;;13.43;3.70;;;;;;;17.12;100.00;100494.44;5013763;28;20061;-64
2023/07/01 02:05:15;;;;;;;16.83;4.28;;;;;;;17.01;100.00;100495.63;5013479;28;20040;-63
2023/07/01 02:07:40;;;;;;;15.32;4.05;;;;;;;16.98;100.00;100490.38;5013391;28;20060;-63
2023/07/01 02:10:07;;;;;;;15.13;3.80;;;;;;;16.99;100.00;100492.09;4995917;28;20037;-64
2023/07/01 02:12:32;;;;;;;14.95;4.15;;;;;;;16.94;100.00;100491.38;5013387;28;20030;-60
2023/07/01 02:14:57;;;;;;;16.23;3.92;;;;;;;16.93;100.00;100486.94;5013335;28;20104;-63
2023/07/01 02:17:23;;;;;;;13.23;4.03;;;;;;;16.88;100.00;100488.88;5013506;28;20033;-61
2023/07/01 02:19:48;;;;;;;15.18;4.00;;;;;;;16.85;100.00;100487.13;5013072;28;20079;-64
2023/07/01 02:22:14;;;;;;;12.88;4.00;;;;;;;16.85;100.00;100483.59;5013206;28;20477;-64
2023/07/01 02:24:39;;;;;;;15.25;4.30;;;;;;;16.84;100.00;100485.34;5013361;28;20087;-64
2023/07/01 02:27:05;;;;;;;17.00;4.13;;;;;;;16.74;100.00;100470.50;5012934;28;20065;-68
2023/07/01 02:29:30;;;;;;;16.38;4.40;;;;;;;16.64;100.00;100464.53;5012665;28;20037;-67
2023/07/01 02:31:56;;;;;;;16.30;4.47;;;;;;;16.49;100.00;100463.16;5013268;28;20087;-67
2023/07/01 02:34:26;;;;;;;15.60;4.20;;;;;;;16.49;100.00;100467.63;5013075;28;20465;-67
2023/07/01 02:36:52;;;;;;;15.95;4.40;;;;;;;16.52;100.00;100465.75;4995616;28;20384;-67
2023/07/01 02:39:17;;;;;;;15.98;4.35;;;;;;;16.47;100.00;100450.78;5013189;28;20026;-67
2023/07/01 02:41:42;;;;;;;13.55;3.88;;;;;;;16.53;100.00;100442.63;5013003;28;20056;-68
2023/07/01 02:44:08;;;;;;;16.13;3.97;;;;;;;16.39;100.00;100453.66;5012966;28;20560;-62
2023/07/01 02:46:33;;;;;;;15.60;4.00;;;;;;;16.26;100.00;100461.09;5013038;28;20030;-65
2023/07/01 02:48:58;;;;;;;17.75;3.85;;;;;;;16.25;100.00;100447.78;5012812;28;20029;-67
2023/07/01 02:51:24;;;;;;;15.15;4.10;;;;;;;16.08;100.00;100459.75;5013105;28;20393;-67
2023/07/01 02:53:49;;;;;;;12.32;3.95;;;;;;;15.95;100.00;100434.31;5013097;28;20030;-67
2023/07/01 02:56:14;;;;;;;15.27;3.90;;;;;;;15.92;100.00;100442.41;5012812;28;20037;-67
2023/07/01 02:58:40;;;;;;;12.55;3.85;;;;;;;15.88;100.00;100454.91;5012969;28;20032;-68
2023/07/01 03:01:05;;;;;;;13.93;3.90;;;;;;;15.82;100.00;100441.72;5012749;28;20057;-68
2023/07/01 03:03:30;;;;;;;15.88;4.20;;;;;;;15.75;100.00;100443.63;5012785;28;20026;-67
2023/07/01 03:05:56;;;;;;;13.82;4.00;;;;;;;15.59;100.00;100443.09;5012930;28;20461;-67
2023/07/01 03:08:22;;;;;;;14.38;4.05;;;;;;;15.48;100.00;100437.16;5012795;28;20022;-67
2023/07/01 03:10:48;;;;;;;12.85;3.78;;;;;;;15.52;100.00;100452.13;5012560;28;20465;-66
2023/07/01 03:13:13;;;;;;;12.27;3.78;;;;;;;15.54;100.00;100442.34;5012966;28;20145;-68
2023/07/01 03:15:38;;;;;;;14.93;4.20;;;;;;;15.47;100.00;100438.94;5012635;28;20038;-67
2023/07/01 03:18:04;;;;;;;12.45;3.88;;;;;;;15.41;100.00;100435.53;5012604;28;20064;-64
2023/07/01 03:20:29;;;;;;;13.88;3.92;;;;;;;15.46;100.00;100423.84;5012594;28;20042;-67
2023/07/01 03:22:56;;;;;;;13.90;4.35;;;;;;;15.48;100.00;100429.16;5012631;28;20401;-67
2023/07/01 03:25:23;;;;;;;12.57;4.00;;;;;;;15.48;100.00;100427.38;5008936;28;20523;-67
2023/07/01 03:27:48;;;;;;;14.43;4.20;;;;;;;15.47;100.00;100424.75;5012740;28;20385;-67
2023/07/01 03:30:16;;;;;;;13.20;3.92;;;;;;;15.43;100.00;100423.06;5012426;28;20037;-68
2023/07/01 03:32:43;;;;;;;12.98;4.00;;;;;;;15.49;100.00;100422.91;5012766;28;20042;-67
2023/07/01 03:35:09;;;;;;;15.40;4.30;;;;;;;15.42;100.00;100413.31;5012646;28;20018;-68
2023/07/01 03:37:35;;;;;;;14.02;4.00;;;;;;;15.45;100.00;100411.47;5012525;28;20537;-67
2023/07/01 03:40:01;;;;;;;12.80;4.28;;;;;;;15.33;100.00;100415.28;5013661;28;20030;-67
2023/07/01 03:42:26;;;;;;;13.07;4.20;;;;;;;15.31;100.00;100409.09;5016172;28;20075;-67
2023/07/01 03:44:51;;;;;;;12.10;4.28;;;;;;;15.19;100.00;100414.69;5016146;28;20029;-68
2023/07/01 03:47:17;;;;;;;15.40;4.50;;;;;;;14.94;100.00;100415.22;5016155;28;20032;-66
2023/07/01 03:49:42;;;;;;;15.88;4.80;;;;;;;14.77;100.00;100417.34;5015890;28;20045;-66
2023/07/01 03:52:08;;;;;;;16.15;5.00;;;;;;;14.65;100.00;100413.13;5015919;28;20026;-60
2023/07/01 03:54:33;;;;;;;17.48;5.57;;;;;;;14.54;100.00;100407.97;5016018;28;20113;-60
2023/07/01 03:56:59;;;;;;;16.20;5.47;;;;;;;14.48;100.00;100419.59;5016046;28;20026;-65
2023/07/01 03:59:24;;;;;;;17.30;5.63;;;;;;;14.43;100.00;100418.81;5015686;28;20041;-65
2023/07/01 04:01:49;;;;;;;16.98;5.53;;;;;;;14.42;100.00;100416.19;5016089;28;20377;-66
2023/07/01 04:04:14;;;;;;;16.90;5.90;;;;;;;14.38;100.00;100420.69;5015655;28;20460;-60
2023/07/01 04:06:40;;;;;;;18.13;6.20;;;;;;;14.30;100.00;100418.16;5015667;28;20489;-65
2023/07/01 04:09:06;;;;;;;18.73;6.78;;;;;;;14.32;100.00;100414.63;5015637;28;20033;-65
2023/07/01 04:11:36;;;;;;;17.35;6.32;;;;;;;14.25;100.00;100420.00;5015541;28;20037;-65
2023/07/01 04:14:02;;;;;;;19.52;6.78;;;;;;;14.25;100.00;100420.00;5015715;28;20057;-65
2023/07/01 04:16:27;;;;;;;17.50;6.35;;;;;;;14.26;100.00;100416.47;5015640;28;20029;-65
2023/07/01 04:18:53;;;;;;;18.60;7.00;;;;;;;14.22;100.00;100420.06;5015433;28;20034;-65
2023/07/01 04:21:18;;;;;;;18.88;7.35;;;;;;;14.27;100.00;100419.97;4997388;28;20042;-61
2023/07/01 04:23:43;;;;;;;17.58;6.53;;;;;;;14.24;100.00;100412.97;5015428;28;20126;-65
2023/07/01 04:26:09;;;;;;;18.02;6.68;;;;;;;14.29;100.00;100412.88;5015202;28;20025;-61
2023/07/01 04:28:35;;;;;;;17.17;6.60;;;;;;;14.24;100.00;100420.94;5015208;28;20037;-60
2023/07/01 04:31:00;;;;;;;16.85;6.25;;;;;;;14.25;100.00;100414.69;4997202;28;20038;-61
2023/07/01 04:33:26;;;;;;;17.05;6.25;;;;;;;14.26;100.00;100416.47;5014838;28;20473;-63
2023/07/01 04:35:51;;;;;;;18.48;6.75;;;;;;;14.24;100.00;100423.59;5015075;28;20030;-61
2023/07/01 04:38:16;;;;;;;17.38;6.40;;;;;;;14.25;100.00;100420.00;5014838;28;20030;-61
2023/07/01 04:40:42;;;;;;;15.73;6.13;;;;;;;14.28;100.00;100417.31;4997206;28;20033;-65
2023/07/01 04:43:09;;;;;;;16.75;6.38;;;;;;;14.23;100.00;100418.31;5015200;28;20056;-67
2023/07/01 04:45:34;;;;;;;19.52;6.53;;;;;;;14.22;100.00;100420.06;5014646;28;20026;-66
2023/07/01 04:48:00;;;;;;;17.00;6.30;;;;;;;14.23;100.00;100421.84;5014698;28;20026;-67
2023/07/01 04:50:25;;;;;;;17.80;6.72;;;;;;;14.23;100.00;100413.84;5014497;28;20030;-66
2023/07/01 04:52:50;;;;;;;16.40;6.20;;;;;;;14.23;100.00;100411.19;4997684;28;20139;-68
2023/07/01 04:55:16;;;;;;;18.33;6.30;;;;;;;14.28;100.00;100414.66;5014727;28;20361;-68
2023/07/01 04:57:41;;;;;;;17.63;6.57;;;;;;;14.26;100.00;100411.13;5014812;28;20033;-67
2023/07/01 05:00:10;;;;;;;17.52;6.70;;;;;;;14.27;100.00;100412.91;5014495;28;20026;-66
2023/07/01 05:02:35;;;;;;;17.45;6.53;;;;;;;14.28;100.00;100414.66;5014546;28;20030;-67
2023/07/01 05:05:01;;;;;;;16.60;6.38;;;;;;;14.27;100.00;100415.56;5014785;28;20129;-67
2023/07/01 05:07:26;;;;;;;16.75;6.35;;;;;;;14.29;100.00;100405.75;5014593;28;20096;-67
2023/07/01 05:09:52;;;;;;;17.73;6.70;;;;;;;14.30;100.00;100412.84;5014753;28;20038;-67
2023/07/01 05:12:17;;;;;;;17.45;6.63;;;;;;;14.32;100.00;100406.63;5014706;28;20062;-67
2023/07/01 05:14:42;;;;;;;18.08;7.05;;;;;;;14.35;100.00;100409.22;5014384;28;20026;-67
2023/07/01 05:17:08;;;;;;;17.75;6.95;;;;;;;14.36;100.00;100411.88;5014464;28;20033;-67
2023/07/01 05:19:34;;;;;;;16.88;6.47;;;;;;;14.36;100.00;100418.94;5014507;28;20362;-67
2023/07/01 05:21:59;;;;;;;18.10;6.80;;;;;;;14.35;100.00;100409.22;5014039;28;20052;-67
2023/07/01 05:24:25;;;;;;;17.60;6.60;;;;;;;14.34;100.00;100411.00;5014439;28;20029;-68
2023/07/01 05:26:51;;;;;;;18.05;6.43;;;;;;;14.32;100.00;100419.94;5014171;28;20113;-67
2023/07/01 05:29:22;;;;;;;17.95;6.45;;;;;;;14.35;100.00;100419.88;5014037;28;20045;-60
2023/07/01 05:31:52;;;;;;;17.17;6.57;;;;;;;14.33;100.00;100411.03;5014251;28;20037;-65
2023/07/01 05:34:17;;;;;;;17.63;6.38;;;;;;;14.33;100.00;100400.38;5014020;28;20084;-64
2023/07/01 05:36:43;;;;;;;19.02;6.85;;;;;;;14.37;100.00;100404.75;4996509;28;20030;-62
2023/07/01 05:39:09;;;;;;;18.08;6.60;;;;;;;14.34;100.00;100407.47;5014142;28;20025;-65
2023/07/01 05:41:35;;;;;;;17.50;6.43;;;;;;;14.33;100.00;100416.34;5013936;28;20033;-63
2023/07/01 05:44:00;;;;;;;17.80;6.57;;;;;;;14.35;100.00;100409.22;5014021;28;20389;-63
2023/07/01 05:46:26;;;;;;;18.00;6.47;;;;;;;14.35;100.00;100398.59;5014069;28;20036;-64
2023/07/01 05:48:52;;;;;;;18.83;7.13;;;;;;;14.37;100.00;100405.66;5013753;28;20022;-64
2023/07/01 05:51:17;;;;;;;17.55;6.80;;;;;;;14.36;100.00;100413.63;5013701;28;20376;-64
2023/07/01 05:53:45;;;;;;;18.92;7.03;;;;;;;14.38;100.00;100401.19;5013862;28;20033;-63
2023/07/01 05:56:10;;;;;;;17.15;6.47;;;;;;;14.39;100.00;100398.50;5013676;28;20053;-65
2023/07/01 05:58:35;;;;;;;18.77;6.88;;;;;;;14.41;100.00;100398.47;5013823;28;20121;-65
2023/07/01 06:01:01;;;;;;;18.52;7.00;;;;;;;14.42;100.00;100397.59;5013646;28;20533;-66
2023/07/01 06:03:27;;;;;;;17.88;7.05;;;;;;;14.43;100.00;100399.31;5013031;28;20446;-65
2023/07/01 06:05:52;;;;;;;18.10;7.18;;;;;;;14.46;100.00;100392.16;5013756;28;20061;-65
2023/07/01 06:08:17;;;;;;;18.70;6.88;;;;;;;14.50;100.00;100392.97;5013595;28;20026;-62
2023/07/01 06:10:43;;;;;;;18.83;7.15;;;;;;;14.55;100.00;100396.44;5013304;28;20037;-65
2023/07/01 06:13:08;;;;;;;18.30;6.88;;;;;;;14.57;100.00;100388.44;5013340;28;20076;-61
2023/07/01 06:15:33;;;;;;;17.58;6.57;;;;;;;14.57;100.00;100385.78;5013521;28;20048;-62
2023/07/01 06:17:59;;;;;;;17.67;6.45;;;;;;;14.60;100.00;100385.72;5013259;28;20068;-64
2023/07/01 06:20:24;;;;;;;17.50;6.38;;;;;;;14.60;100.00;100389.22;5013326;28;20042;-62
2023/07/01 06:22:50;;;;;;;18.02;6.80;;;;;;;14.63;100.00;100383.91;5013196;28;20092;-65
2023/07/01 06:25:16;;;;;;;16.80;6.28;;;;;;;14.63;100.00;100394.56;5012942;28;20117;-65
2023/07/01 06:27:41;;;;;;;16.42;6.18;;;;;;;14.65;100.00;100394.53;5013375;28;20030;-67
2023/07/01 06:30:07;;;;;;;17.83;6.40;;;;;;;14.67;100.00;100376.72;5012844;28;20057;-68
2023/07/01 06:32:32;;;;;;;16.38;6.35;;;;;;;14.70;100.00;100378.47;5013104;28;20112;-68
2023/07/01 06:34:58;;;;;;;16.60;6.22;;;;;;;14.70;100.00;100379.31;5013141;28;20030;-65
2023/07/01 06:37:23;;;;;;;17.42;6.57;;;;;;;14.78;100.00;100376.50;5013011;28;20560;-66
2023/07/01 06:39:48;;;;;;;17.42;6.20;;;;;;;14.77;100.00;100383.63;5012998;28;20030;-62
2023/07/01 06:42:14;;;;;;;17.40;6.80;;;;;;;14.77;100.00;100380.09;5013412;28;20029;-63
2023/07/01 06:44:39;;;;;;;17.10;6.40;;;;;;;14.72;100.00;100382.84;5012971;28;20045;-68
2023/07/01 06:47:05;;;;;;;16.85;6.18;;;;;;;14.74;100.00;100382.81;5012838;28;20117;-65
2023/07/01 06:49:34;;;;;;;17.67;6.45;;;;;;;14.74;100.00;100386.34;5013052;28;20091;-67
2023/07/01 06:51:59;;;;;;;17.73;6.40;;;;;;;14.76;100.00;100388.97;5012925;28;20037;-61
2023/07/01 06:54:24;;;;;;;16.45;6.13;;;;;;;14.72;100.00;100392.59;4995160;28;20122;-63
2023/07/01 06:56:50;;;;;;;16.23;5.90;;;;;;;14.74;100.00;100374.84;5012999;28;20384;-63
2023/07/01 06:59:15;;;;;;;16.70;6.07;;;;;;;14.72;100.00;100372.22;5012793;28;20065;-62
2023/07/01 07:01:41;;;;;;;16.23;6.00;;;;;;;14.75;100.00;100376.56;5012859;28;20080;-67
2023/07/01 07:04:06;;;;;;;15.50;5.82;;;;;;;14.71;100.00;100365.13;5012612;28;20036;-67
2023/07/01 07:06:32;;;;;;;16.02;6.00;;;;;;;14.76;100.00;100381.00;5012775;28;20030;-64
2023/07/01 07:08:57;;;;;;;15.35;5.80;;;;;;;14.77;100.00;100374.78;5012839;28;20038;-65
2023/07/01 07:11:22;;;;;;;15.63;5.70;;;;;;;14.78;100.00;100377.41;5008954;28;20088;-61
2023/07/01 07:13:48;;;;;;;16.10;5.88;;;;;;;14.77;100.00;100380.09;5013375;28;20520;-65
2023/07/01 07:16:13;;;;;;;15.52;5.78;;;;;;;14.84;100.00;100354.22;5016746;28;20025;-63
2023/07/01 07:18:39;;;;;;;14.90;5.53;;;;;;;14.87;100.00;100379.00;5016576;28;20481;-66
2023/07/01 07:21:04;;;;;;;15.07;5.70;;;;;;;14.88;100.00;100375.44;5016310;28;20481;-62
2023/07/01 07:23:29;;;;;;;16.38;6.07;;;;;;;14.90;100.00;100373.59;5016594;28;20077;-65
2023/07/01 07:25:55;;;;;;;16.00;6.10;;;;;;;14.95;100.00;100369.03;5016436;28;20030;-65
2023/07/01 07:28:20;;;;;;;17.77;5.95;;;;;;;14.96;100.00;100364.63;5016334;28;20125;-68
2023/07/01 07:30:45;;;;;;;16.25;6.30;;;;;;;15.03;100.00;100360.03;5016518;28;20034;-68
2023/07/01 07:33:11;;;;;;;17.65;6.25;;;;;;;15.02;100.00;100351.16;5016270;28;20032;-69
2023/07/01 07:35:37;;;;;;;17.15;6.38;;;;;;;15.06;100.00;100359.97;5016398;28;20043;-67
2023/07/01 07:38:03;;;;;;;17.83;6.40;;;;;;;15.07;100.00;100361.72;5016613;28;20072;-68
2023/07/01 07:40:28;;;;;;;17.17;6.18;;;;;;;15.12;100.00;100349.19;5016077;28;20029;-68
2023/07/01 07:42:54;;;;;;;16.98;6.15;;;;;;;15.10;100.00;100351.88;5016452;28;20075;-68
2023/07/01 07:45:23;;;;;;;16.83;6.25;;;;;;;15.16;100.00;100354.41;5016052;28;20026;-68
2023/07/01 07:47:48;;;;;;;16.85;5.97;;;;;;;15.17;100.00;100355.28;5016033;28;20500;-68
2023/07/01 07:50:14;;;;;;;15.25;6.03;;;;;;;15.18;100.00;100353.50;5016129;28;20022;-67
2023/07/01 07:52:39;;;;;;;16.58;5.80;;;;;;;15.24;100.00;100356.03;5016185;28;20128;-68
2023/07/01 07:55:05;;;;;;;16.75;5.90;;;;;;;15.31;100.00;100345.19;5016194;28;20030;-69
2023/07/01 07:57:30;;;;;;;16.98;6.10;;;;;;;15.32;100.00;100346.09;5016058;28;20072;-66
2023/07/01 07:59:56;;;;;;;16.25;5.80;;;;;;;15.39;100.00;100339.72;5015769;28;20393;-67
2023/07/01 08:02:21;;;;;;;14.43;5.47;;;;;;;15.44;100.00;100343.13;5015744;28;20025;-66
2023/07/01 08:04:47;;;;;;;14.93;5.40;;;;;;;15.49;100.00;100337.69;5015966;28;20030;-62
2023/07/01 08:07:13;;;;;;;15.63;5.53;;;;;;;15.44;100.00;100343.13;5015679;28;20037;-66
2023/07/01 08:09:38;;;;;;;15.27;5.57;;;;;;;15.47;100.00;100347.50;5015552;28;20045;-66
2023/07/01 08:12:04;;;;;;;14.90;5.88;;;;;;;15.48;100.00;100341.28;5015947;28;20476;-66
2023/07/01 08:14:30;;;;;;;14.73;5.60;;;;;;;15.44;100.00;100336.94;5015531;28;20088;-66
2023/07/01 08:16:57;;;;;;;14.80;5.50;;;;;;;15.53;100.00;100344.69;5015605;28;20026;-66
2023/07/01 08:19:23;;;;;;;14.75;5.38;;;;;;;15.51;100.00;100339.41;5015698;28;20025;-66
2023/07/01 08:21:49;;;;;;;14.05;5.60;;;;;;;15.53;100.00;100344.69;5015227;28;20088;-66
2023/07/01 08:24:15;;;;;;;14.75;5.43;;;;;;;15.65;100.00;100343.50;5015348;28;20030;-62
2023/07/01 08:26:41;;;;;;;13.98;5.18;;;;;;;15.70;100.00;100336.28;5014922;28;20026;-66
2023/07/01 08:29:08;;;;;;;13.73;5.10;;;;;;;15.74;100.00;100347.72;5015206;28;20022;-62
2023/07/01 08:31:33;;;;;;;12.45;5.10;;;;;;;15.76;100.00;100348.59;5015296;28;20080;-62
2023/07/01 08:33:58;;;;;;;14.20;5.20;;;;;;;15.82;100.00;100345.78;5015419;28;20037;-65
2023/07/01 08:36:27;;;;;;;11.80;4.80;;;;;;;15.78;100.00;100337.00;5015134;28;20030;-66
2023/07/01 08:38:52;;;;;;;13.25;4.85;;;;;;;15.86;100.00;100336.81;5015352;28;20045;-66
2023/07/01 08:41:18;;;;;;;11.32;4.60;;;;;;;15.82;100.00;100345.78;5015234;28;20038;-66
2023/07/01 08:43:50;;;;;;;12.93;4.80;;;;;;;15.83;100.00;100342.22;5015122;28;20029;-70
2023/07/01 08:46:18;;;;;;;12.02;4.55;;;;;;;15.80;100.00;100342.28;5014988;28;20034;-69
2023/07/01 08:48:45;;;;;;;11.85;4.60;;;;;;;15.86;100.00;100339.47;5015186;28;20037;-70
2023/07/01 08:51:28;;;;;;;12.10;4.53;;;;;;;15.93;100.00;100341.06;5014840;28;20030;-63
2023/07/01 08:53:56;;;;;;;11.48;4.40;;;;;;;15.94;100.00;100342.81;5011146;28;20362;-62
2023/07/01 08:56:22;;;;;;;10.90;4.40;;;;;;;15.97;100.00;100334.72;5014672;28;20085;-68
2023/07/01 08:58:48;;;;;;;10.57;4.47;;;;;;;16.00;100.00;100344.44;5014795;28;20026;-64
2023/07/01 09:01:16;;;;;;;10.98;4.15;;;;;;;16.00;100.00;100340.00;5014657;28;20034;-68
2023/07/01 09:03:41;;;;;;;10.23;4.10;;;;;;;16.04;100.00;100338.97;5014694;28;20022;-71
2023/07/01 09:06:07;;;;;;;11.60;4.35;;;;;;;16.16;100.00;100336.91;5014768;28;20022;-63
2023/07/01 09:08:38;;;;;;;10.60;4.40;;;;;;;16.31;100.00;100343.63;5014763;28;20038;-65
2023/07/01 09:11:04;;;;;;;10.45;4.20;;;;;;;16.41;100.00;100338.91;5014324;28;20026;-62
2023/07/01 09:13:30;;;;;;;9.05;3.97;;;;;;;16.30;100.00;100348.09;5014735;28;20104;-63
2023/07/01 09:15:55;;;;;;;9.57;3.95;;;;;;;16.22;100.00;100342.06;5014510;28;20113;-69
2023/07/01 09:18:30;;;;;;;10.63;3.83;;;;;;;16.18;100.00;100346.63;5014365;28;20033;-69
2023/07/01 09:20:57;;;;;;;9.25;4.00;;;;;;;16.20;100.00;100341.25;5010524;28;20057;-66
2023/07/01 09:23:34;;;;;;;9.85;3.92;;;;;;;16.34;100.00;100348.91;5014291;28;20401;-69
2023/07/01 09:26:11;;;;;;;9.73;4.18;;;;;;;16.58;100.00;100344.66;5010891;28;20072;-70
2023/07/01 09:28:38;;;;;;;11.63;4.47;;;;;;;16.54;100.00;100345.66;5014324;28;20061;-67
2023/07/01 09:31:05;;;;;;;11.75;4.72;;;;;;;16.56;100.00;100338.50;5014365;28;20029;-63
2023/07/01 09:33:32;;;;;;;12.65;4.45;;;;;;;16.66;100.00;100339.09;5014091;28;20164;-61
2023/07/01 09:36:01;;;;;;;10.38;4.25;;;;;;;16.56;100.00;100333.16;5014009;28;20026;-65
2023/07/01 09:38:27;;;;;;;11.07;4.10;;;;;;;16.51;100.00;100335.06;5010633;28;20045;-66
2023/07/01 09:40:52;;;;;;;9.98;4.20;;;;;;;16.55;100.00;100323.41;5013918;28;20037;-66
2023/07/01 09:43:19;;;;;;;11.30;4.30;;;;;;;16.54;100.00;100329.63;5014094;28;20034;-67
2023/07/01 09:45:54;;;;;;;9.27;4.32;;;;;;;16.61;100.00;100330.34;5013993;28;20030;-68
2023/07/01 09:48:21;;;;;;;12.05;4.35;;;;;;;16.70;100.00;100319.41;5013959;28;20069;-68
2023/07/01 09:50:46;;;;;;;9.73;4.28;;;;;;;16.66;100.00;100318.63;5013621;28;20045;-68
2023/07/01 09:53:22;;;;;;;9.50;4.10;;;;;;;16.62;100.00;100332.97;5014000;28;20038;-68
2023/07/01 09:55:48;;;;;;;11.80;4.50;;;;;;;16.61;100.00;100325.88;5013764;28;20112;-65
2023/07/01 09:58:15;;;;;;;10.80;4.47;;;;;;;16.54;100.00;100324.31;5013619;28;20097;-67
2023/07/01 10:00:42;;;;;;;12.02;4.45;;;;;;;16.52;100.00;100320.81;5013786;28;20022;-69
2023/07/01 10:03:08;;;;;;;10.10;4.30;;;;;;;16.55;100.00;100326.94;5013778;28;20473;-64
2023/07/01 10:05:34;;;;;;;12.45;4.50;;;;;;;16.61;100.00;100331.22;5013840;28;20034;-67
2023/07/01 10:07:59;;;;;;;10.43;4.22;;;;;;;16.59;100.00;100326.88;5013479;28;20029;-69
2023/07/01 10:10:25;;;;;;;10.13;4.18;;;;;;;16.68;100.00;100319.44;5009847;28;20033;-63
2023/07/01 10:12:52;;;;;;;10.98;4.32;;;;;;;16.74;100.00;100321.94;4995804;28;20384;-69
2023/07/01 10:15:26;;;;;;;8.43;3.95;;;;;;;16.82;100.00;100312.81;5013322;28;20036;-66
2023/07/01 10:17:53;;;;;;;10.07;3.97;;;;;;;16.80;100.00;100317.34;5013380;28;20033;-68
2023/07/01 10:20:28;;;;;;;10.15;4.20;;;;;;;16.90;100.00;100310.84;5013255;28;20046;-65
2023/07/01 10:22:55;;;;;;;10.90;4.38;;;;;;;17.01;100.00;100314.06;5013537;28;20033;-64
2023/07/01 10:25:37;;;;;;;9.02;4.05;;;;;;;16.99;100.00;100310.53;5013123;28;20065;-66
2023/07/01 10:28:10;;;;;;;10.98;4.25;;;;;;;16.97;100.00;100312.41;5009988;28;20084;-66
2023/07/01 10:30:42;;;;;;;10.65;4.00;;;;;;;16.90;100.00;100310.84;5013201;28;20422;-64
2023/07/01 10:33:39;;;;;;;10.98;4.18;;;;;;;16.88;100.00;100305.53;5012958;28;20436;-66
2023/07/01 10:36:06;;;;;;;11.43;4.43;;;;;;;16.83;100.00;100301.22;5013193;28;20080;-66
2023/07/01 10:38:34;;;;;;;14.15;4.80;;;;;;;16.91;100.00;100312.59;5012960;28;20026;-65
2023/07/01 10:40:59;;;;;;;14.27;5.15;;;;;;;17.00;100.00;100298.94;5012996;28;20026;-66
2023/07/01 10:43:36;;;;;;;15.20;5.22;;;;;;;17.16;100.00;100301.16;5013450;28;20076;-65
2023/07/01 10:46:22;;;;;;;16.58;5.55;;;;;;;17.15;100.00;100312.75;5010046;28;20022;-65
2023/07/01 10:49:06;;;;;;;16.50;5.50;;;;;;;17.27;100.00;100303.47;5012698;28;20417;-62
2023/07/01 10:51:51;;;;;;;15.88;5.78;;;;;;;17.41;100.00;100312.78;5013172;28;20030;-62
2023/07/01 10:54:35;;;;;;;17.27;5.90;;;;;;;17.41;100.00;100307.44;5013004;28;20022;-66
2023/07/01 10:57:15;;;;;;;17.42;5.90;;;;;;;17.38;100.00;100306.69;5009824;28;20477;-68
2023/07/01 10:59:41;;;;;;;16.60;5.75;;;;;;;17.37;100.00;100308.50;5013024;28;20377;-68
2023/07/01 11:02:09;;;;;;;16.67;5.68;;;;;;;17.41;100.00;100306.56;5012712;28;20033;-68
2023/07/01 11:04:52;;;;;;;14.77;5.15;;;;;;;17.56;100.00;100297.19;5012878;28;20090;-67
2023/07/01 11:07:24;;;;;;;16.13;5.72;;;;;;;17.96;100.00;100298.53;5012977;28;20083;-68
2023/07/01 11:09:50;;;;;;;14.48;5.05;;;;;;;18.21;100.00;100295.00;4995546;28;20030;-66
2023/07/01 11:12:15;;;;;;;13.95;4.90;;;;;;;18.30;100.00;100267.91;5012640;28;20400;-65